sensor_id;sensor_type;location;lat;lon;timestamp;P1;durP1;ratioP1;P2;durP2;ratioP2
22967;SDS011;11650;48.106;-1.696;2022-11-20T00:02:21;16.97;;;7.53;;
22967;SDS011;11650;48.106;-1.696;2022-11-20T00:04:47;13.37;;;7.30;;
22967;SDS011;11650;48.106;-1.696;2022-11-20T00:07:12;16.40;;;7.50;;
22967;SDS011;11650;48.106;-1.696;2022-11-20T00:09:38;15.00;;;6.87;;
22967;SDS011;11650;48.106;-1.696;2022-11-20T00:12:03;12.97;;;6.70;;
22967;SDS011;11650;48.106;-1.696;2022-11-20T00:14:29;14.63;;;6.93;;
22967;SDS011;11650;48.106;-1.696;2022-11-20T00:16:55;15.50;;;6.73;;
22967;SDS011;11650;48.106;-1.696;2022-11-20T00:19:20;15.20;;;6.17;;
22967;SDS011;11650;48.106;-1.696;2022-11-20T00:21:46;17.10;;;6.10;;
22967;SDS011;11650;48.106;-1.696;2022-11-20T00:24:12;11.83;;;6.00;;
22967;SDS011;11650;48.106;-1.696;2022-11-20T00:26:38;12.73;;;6.27;;
22967;SDS011;11650;48.106;-1.696;2022-11-20T00:29:03;12.53;;;5.80;;
22967;SDS011;11650;48.106;-1.696;2022-11-20T00:31:29;15.87;;;6.87;;
22967;SDS011;11650;48.106;-1.696;2022-11-20T00:33:55;15.50;;;6.53;;
22967;SDS011;11650;48.106;-1.696;2022-11-20T00:36:22;14.57;;;6.23;;
22967;SDS011;11650;48.106;-1.696;2022-11-20T00:38:53;13.70;;;6.03;;
22967;SDS011;11650;48.106;-1.696;2022-11-20T00:41:20;14.33;;;6.10;;
22967;SDS011;11650;48.106;-1.696;2022-11-20T00:43:46;13.40;;;5.60;;
22967;SDS011;11650;48.106;-1.696;2022-11-20T00:46:13;14.43;;;5.67;;
22967;SDS011;11650;48.106;-1.696;2022-11-20T00:48:40;10.97;;;5.20;;
22967;SDS011;11650;48.106;-1.696;2022-11-20T00:51:06;13.30;;;4.83;;
22967;SDS011;11650;48.106;-1.696;2022-11-20T00:53:32;12.90;;;5.40;;
22967;SDS011;11650;48.106;-1.696;2022-11-20T00:56:02;11.50;;;5.43;;
22967;SDS011;11650;48.106;-1.696;2022-11-20T00:58:33;10.07;;;5.37;;
22967;SDS011;11650;48.106;-1.696;2022-11-20T01:01:19;16.27;;;5.50;;
22967;SDS011;11650;48.106;-1.696;2022-11-20T01:03:49;12.83;;;5.60;;
22967;SDS011;11650;48.106;-1.696;2022-11-20T01:08:45;9.60;;;5.00;;
22967;SDS011;11650;48.106;-1.696;2022-11-20T01:11:13;7.93;;;4.57;;
22967;SDS011;11650;48.106;-1.696;2022-11-20T01:13:41;12.93;;;4.87;;
22967;SDS011;11650;48.106;-1.696;2022-11-20T01:18:35;10.63;;;4.60;;
22967;SDS011;11650;48.106;-1.696;2022-11-20T01:21:06;12.00;;;5.00;;
22967;SDS011;11650;48.106;-1.696;2022-11-20T01:23:40;13.43;;;4.50;;
22967;SDS011;11650;48.106;-1.696;2022-11-20T01:26:08;8.97;;;4.47;;
22967;SDS011;11650;48.106;-1.696;2022-11-20T01:28:36;13.43;;;4.90;;
22967;SDS011;11650;48.106;-1.696;2022-11-20T01:31:10;8.60;;;4.27;;
22967;SDS011;11650;48.106;-1.696;2022-11-20T01:33:41;9.13;;;4.53;;
22967;SDS011;11650;48.106;-1.696;2022-11-20T01:36:08;10.97;;;4.80;;
22967;SDS011;11650;48.106;-1.696;2022-11-20T01:38:35;7.47;;;4.30;;
22967;SDS011;11650;48.106;-1.696;2022-11-20T01:41:01;11.80;;;4.40;;
22967;SDS011;11650;48.106;-1.696;2022-11-20T01:43:26;12.27;;;4.50;;
22967;SDS011;11650;48.106;-1.696;2022-11-20T01:48:32;11.97;;;4.60;;
22967;SDS011;11650;48.106;-1.696;2022-11-20T01:54:12;13.03;;;4.20;;
22967;SDS011;11650;48.106;-1.696;2022-11-20T01:56:44;11.27;;;4.53;;
22967;SDS011;11650;48.106;-1.696;2022-11-20T01:59:12;10.33;;;4.30;;
22967;SDS011;11650;48.106;-1.696;2022-11-20T02:01:40;9.67;;;4.07;;
22967;SDS011;11650;48.106;-1.696;2022-11-20T02:04:06;13.53;;;4.67;;
22967;SDS011;11650;48.106;-1.696;2022-11-20T02:06:44;10.17;;;4.47;;
22967;SDS011;11650;48.106;-1.696;2022-11-20T02:09:13;13.10;;;4.47;;
22967;SDS011;11650;48.106;-1.696;2022-11-20T02:11:40;13.40;;;4.30;;
22967;SDS011;11650;48.106;-1.696;2022-11-20T02:14:05;11.20;;;4.20;;
22967;SDS011;11650;48.106;-1.696;2022-11-20T02:16:35;12.80;;;3.90;;
22967;SDS011;11650;48.106;-1.696;2022-11-20T02:19:05;8.80;;;4.30;;
22967;SDS011;11650;48.106;-1.696;2022-11-20T02:21:47;12.50;;;4.70;;
22967;SDS011;11650;48.106;-1.696;2022-11-20T02:24:16;14.17;;;4.20;;
22967;SDS011;11650;48.106;-1.696;2022-11-20T02:27:00;13.23;;;4.23;;
22967;SDS011;11650;48.106;-1.696;2022-11-20T02:29:34;13.73;;;4.00;;
22967;SDS011;11650;48.106;-1.696;2022-11-20T02:35:07;11.27;;;3.73;;
22967;SDS011;11650;48.106;-1.696;2022-11-20T02:37:36;12.03;;;3.97;;
22967;SDS011;11650;48.106;-1.696;2022-11-20T02:40:04;8.83;;;3.63;;
22967;SDS011;11650;48.106;-1.696;2022-11-20T02:42:30;8.67;;;3.57;;
22967;SDS011;11650;48.106;-1.696;2022-11-20T02:44:55;8.70;;;3.23;;
22967;SDS011;11650;48.106;-1.696;2022-11-20T02:47:21;15.63;;;4.00;;
22967;SDS011;11650;48.106;-1.696;2022-11-20T02:49:46;11.37;;;3.33;;
22967;SDS011;11650;48.106;-1.696;2022-11-20T02:52:12;13.43;;;4.07;;
22967;SDS011;11650;48.106;-1.696;2022-11-20T02:54:37;12.47;;;3.60;;
22967;SDS011;11650;48.106;-1.696;2022-11-20T02:57:03;9.93;;;3.33;;
22967;SDS011;11650;48.106;-1.696;2022-11-20T02:59:29;13.50;;;3.47;;
22967;SDS011;11650;48.106;-1.696;2022-11-20T03:01:54;11.67;;;3.60;;
22967;SDS011;11650;48.106;-1.696;2022-11-20T03:04:20;10.33;;;3.80;;
22967;SDS011;11650;48.106;-1.696;2022-11-20T03:06:45;9.87;;;3.57;;
22967;SDS011;11650;48.106;-1.696;2022-11-20T03:09:11;11.30;;;3.97;;
22967;SDS011;11650;48.106;-1.696;2022-11-20T03:11:37;16.57;;;5.07;;
22967;SDS011;11650;48.106;-1.696;2022-11-20T03:14:05;9.07;;;4.00;;
22967;SDS011;11650;48.106;-1.696;2022-11-20T03:16:31;12.40;;;4.00;;
22967;SDS011;11650;48.106;-1.696;2022-11-20T03:18:57;8.20;;;4.00;;
22967;SDS011;11650;48.106;-1.696;2022-11-20T03:21:23;14.77;;;4.50;;
22967;SDS011;11650;48.106;-1.696;2022-11-20T03:23:49;11.20;;;4.40;;
22967;SDS011;11650;48.106;-1.696;2022-11-20T03:26:16;9.53;;;4.13;;
22967;SDS011;11650;48.106;-1.696;2022-11-20T03:28:50;15.90;;;4.20;;
22967;SDS011;11650;48.106;-1.696;2022-11-20T03:31:21;11.37;;;4.30;;
22967;SDS011;11650;48.106;-1.696;2022-11-20T03:33:55;11.13;;;3.97;;
22967;SDS011;11650;48.106;-1.696;2022-11-20T03:36:22;6.93;;;4.10;;
22967;SDS011;11650;48.106;-1.696;2022-11-20T03:38:48;11.80;;;4.60;;
22967;SDS011;11650;48.106;-1.696;2022-11-20T03:41:18;13.80;;;4.57;;
22967;SDS011;11650;48.106;-1.696;2022-11-20T03:43:49;12.23;;;4.30;;
22967;SDS011;11650;48.106;-1.696;2022-11-20T03:46:19;7.27;;;3.97;;
22967;SDS011;11650;48.106;-1.696;2022-11-20T03:48:45;9.40;;;4.43;;
22967;SDS011;11650;48.106;-1.696;2022-11-20T03:53:42;10.50;;;4.20;;
22967;SDS011;11650;48.106;-1.696;2022-11-20T03:56:09;11.47;;;4.27;;
22967;SDS011;11650;48.106;-1.696;2022-11-20T03:58:36;11.50;;;4.77;;
22967;SDS011;11650;48.106;-1.696;2022-11-20T04:01:06;9.73;;;4.80;;
22967;SDS011;11650;48.106;-1.696;2022-11-20T04:03:37;12.73;;;4.47;;
22967;SDS011;11650;48.106;-1.696;2022-11-20T04:06:04;9.40;;;4.80;;
22967;SDS011;11650;48.106;-1.696;2022-11-20T04:08:31;14.77;;;5.10;;
22967;SDS011;11650;48.106;-1.696;2022-11-20T04:11:07;12.20;;;4.70;;
22967;SDS011;11650;48.106;-1.696;2022-11-20T04:13:40;11.67;;;5.40;;
22967;SDS011;11650;48.106;-1.696;2022-11-20T04:16:07;13.27;;;5.60;;
22967;SDS011;11650;48.106;-1.696;2022-11-20T04:18:34;13.87;;;6.00;;
22967;SDS011;11650;48.106;-1.696;2022-11-20T04:21:00;14.10;;;6.53;;
22967;SDS011;11650;48.106;-1.696;2022-11-20T04:23:27;12.80;;;6.77;;
22967;SDS011;11650;48.106;-1.696;2022-11-20T04:25:53;11.60;;;6.37;;
22967;SDS011;11650;48.106;-1.696;2022-11-20T04:28:19;11.97;;;7.20;;
22967;SDS011;11650;48.106;-1.696;2022-11-20T04:30:45;14.60;;;7.20;;
22967;SDS011;11650;48.106;-1.696;2022-11-20T04:33:10;11.83;;;6.53;;
22967;SDS011;11650;48.106;-1.696;2022-11-20T04:35:36;16.33;;;7.10;;
22967;SDS011;11650;48.106;-1.696;2022-11-20T04:38:03;15.20;;;7.07;;
22967;SDS011;11650;48.106;-1.696;2022-11-20T04:40:29;16.23;;;8.33;;
22967;SDS011;11650;48.106;-1.696;2022-11-20T04:42:55;16.73;;;8.07;;
22967;SDS011;11650;48.106;-1.696;2022-11-20T04:45:22;15.00;;;7.33;;
22967;SDS011;11650;48.106;-1.696;2022-11-20T04:47:48;10.87;;;7.80;;
22967;SDS011;11650;48.106;-1.696;2022-11-20T04:50:14;14.13;;;7.50;;
22967;SDS011;11650;48.106;-1.696;2022-11-20T04:52:40;14.20;;;7.93;;
22967;SDS011;11650;48.106;-1.696;2022-11-20T04:55:05;11.37;;;7.20;;
22967;SDS011;11650;48.106;-1.696;2022-11-20T04:57:32;14.53;;;7.27;;
22967;SDS011;11650;48.106;-1.696;2022-11-20T04:59:57;13.67;;;7.27;;
22967;SDS011;11650;48.106;-1.696;2022-11-20T05:02:23;11.20;;;7.37;;
22967;SDS011;11650;48.106;-1.696;2022-11-20T05:04:48;15.50;;;7.30;;
22967;SDS011;11650;48.106;-1.696;2022-11-20T05:07:14;12.53;;;7.40;;
22967;SDS011;11650;48.106;-1.696;2022-11-20T05:09:40;16.20;;;8.23;;
22967;SDS011;11650;48.106;-1.696;2022-11-20T05:12:06;15.67;;;8.40;;
22967;SDS011;11650;48.106;-1.696;2022-11-20T05:14:33;15.03;;;7.80;;
22967;SDS011;11650;48.106;-1.696;2022-11-20T05:16:59;15.33;;;8.33;;
22967;SDS011;11650;48.106;-1.696;2022-11-20T05:19:24;14.23;;;8.23;;
22967;SDS011;11650;48.106;-1.696;2022-11-20T05:21:50;16.30;;;9.00;;
22967;SDS011;11650;48.106;-1.696;2022-11-20T05:24:16;16.97;;;8.60;;
22967;SDS011;11650;48.106;-1.696;2022-11-20T05:26:41;11.00;;;8.63;;
22967;SDS011;11650;48.106;-1.696;2022-11-20T05:29:09;18.73;;;9.63;;
22967;SDS011;11650;48.106;-1.696;2022-11-20T05:31:36;15.80;;;9.30;;
22967;SDS011;11650;48.106;-1.696;2022-11-20T05:34:03;17.77;;;10.30;;
22967;SDS011;11650;48.106;-1.696;2022-11-20T05:36:29;15.67;;;10.17;;
22967;SDS011;11650;48.106;-1.696;2022-11-20T05:38:55;20.43;;;10.33;;
22967;SDS011;11650;48.106;-1.696;2022-11-20T05:41:21;12.80;;;9.63;;
22967;SDS011;11650;48.106;-1.696;2022-11-20T05:43:47;15.20;;;9.67;;
22967;SDS011;11650;48.106;-1.696;2022-11-20T05:46:14;15.40;;;9.73;;
22967;SDS011;11650;48.106;-1.696;2022-11-20T05:48:41;16.77;;;9.63;;
22967;SDS011;11650;48.106;-1.696;2022-11-20T05:51:09;16.63;;;10.27;;
22967;SDS011;11650;48.106;-1.696;2022-11-20T05:53:36;14.43;;;9.60;;
22967;SDS011;11650;48.106;-1.696;2022-11-20T05:56:06;15.30;;;9.33;;
22967;SDS011;11650;48.106;-1.696;2022-11-20T05:58:35;15.13;;;9.50;;
22967;SDS011;11650;48.106;-1.696;2022-11-20T06:01:11;13.67;;;8.10;;
22967;SDS011;11650;48.106;-1.696;2022-11-20T06:03:39;13.40;;;8.27;;
22967;SDS011;11650;48.106;-1.696;2022-11-20T06:06:05;20.57;;;9.77;;
22967;SDS011;11650;48.106;-1.696;2022-11-20T06:08:32;12.37;;;9.40;;
22967;SDS011;11650;48.106;-1.696;2022-11-20T06:10:58;15.13;;;9.27;;
22967;SDS011;11650;48.106;-1.696;2022-11-20T06:13:27;9.13;;;6.90;;
22967;SDS011;11650;48.106;-1.696;2022-11-20T06:15:53;7.20;;;5.77;;
22967;SDS011;11650;48.106;-1.696;2022-11-20T06:18:19;9.47;;;6.13;;
22967;SDS011;11650;48.106;-1.696;2022-11-20T06:20:45;6.37;;;5.20;;
22967;SDS011;11650;48.106;-1.696;2022-11-20T06:23:12;6.60;;;5.23;;
22967;SDS011;11650;48.106;-1.696;2022-11-20T06:25:38;6.37;;;4.87;;
22967;SDS011;11650;48.106;-1.696;2022-11-20T06:28:05;5.80;;;4.17;;
22967;SDS011;11650;48.106;-1.696;2022-11-20T06:30:31;6.93;;;4.50;;
22967;SDS011;11650;48.106;-1.696;2022-11-20T06:32:56;6.37;;;4.03;;
22967;SDS011;11650;48.106;-1.696;2022-11-20T06:35:22;5.43;;;4.77;;
22967;SDS011;11650;48.106;-1.696;2022-11-20T06:37:48;4.47;;;3.30;;
22967;SDS011;11650;48.106;-1.696;2022-11-20T06:40:13;5.93;;;3.60;;
22967;SDS011;11650;48.106;-1.696;2022-11-20T06:42:39;3.93;;;3.33;;
22967;SDS011;11650;48.106;-1.696;2022-11-20T06:45:04;5.10;;;3.77;;
22967;SDS011;11650;48.106;-1.696;2022-11-20T06:47:30;5.00;;;3.73;;
22967;SDS011;11650;48.106;-1.696;2022-11-20T06:49:56;6.00;;;4.17;;
22967;SDS011;11650;48.106;-1.696;2022-11-20T06:52:21;4.97;;;3.83;;
22967;SDS011;11650;48.106;-1.696;2022-11-20T06:54:47;4.60;;;4.10;;
22967;SDS011;11650;48.106;-1.696;2022-11-20T06:57:13;5.83;;;4.60;;
22967;SDS011;11650;48.106;-1.696;2022-11-20T06:59:38;4.53;;;3.53;;
22967;SDS011;11650;48.106;-1.696;2022-11-20T07:02:04;5.47;;;4.50;;
22967;SDS011;11650;48.106;-1.696;2022-11-20T07:04:30;8.57;;;4.47;;
22967;SDS011;11650;48.106;-1.696;2022-11-20T07:06:55;5.67;;;4.23;;
22967;SDS011;11650;48.106;-1.696;2022-11-20T07:09:21;5.60;;;4.67;;
22967;SDS011;11650;48.106;-1.696;2022-11-20T07:11:46;5.73;;;4.57;;
22967;SDS011;11650;48.106;-1.696;2022-11-20T07:14:12;5.43;;;4.40;;
22967;SDS011;11650;48.106;-1.696;2022-11-20T07:16:37;6.93;;;4.70;;
22967;SDS011;11650;48.106;-1.696;2022-11-20T07:19:03;6.17;;;5.03;;
22967;SDS011;11650;48.106;-1.696;2022-11-20T07:21:29;7.07;;;4.87;;
22967;SDS011;11650;48.106;-1.696;2022-11-20T07:23:54;7.83;;;5.37;;
22967;SDS011;11650;48.106;-1.696;2022-11-20T07:26:20;6.63;;;5.40;;
22967;SDS011;11650;48.106;-1.696;2022-11-20T07:28:45;9.10;;;5.93;;
22967;SDS011;11650;48.106;-1.696;2022-11-20T07:31:11;7.27;;;5.87;;
22967;SDS011;11650;48.106;-1.696;2022-11-20T07:33:38;8.90;;;6.03;;
22967;SDS011;11650;48.106;-1.696;2022-11-20T07:36:03;7.40;;;5.57;;
22967;SDS011;11650;48.106;-1.696;2022-11-20T07:38:29;7.03;;;5.40;;
22967;SDS011;11650;48.106;-1.696;2022-11-20T07:40:55;6.50;;;5.37;;
22967;SDS011;11650;48.106;-1.696;2022-11-20T07:43:24;7.60;;;5.00;;
22967;SDS011;11650;48.106;-1.696;2022-11-20T07:45:50;8.70;;;5.20;;
22967;SDS011;11650;48.106;-1.696;2022-11-20T07:48:16;7.07;;;4.97;;
22967;SDS011;11650;48.106;-1.696;2022-11-20T07:50:41;8.53;;;5.57;;
22967;SDS011;11650;48.106;-1.696;2022-11-20T07:53:07;7.53;;;5.63;;
22967;SDS011;11650;48.106;-1.696;2022-11-20T07:55:33;8.60;;;5.77;;
22967;SDS011;11650;48.106;-1.696;2022-11-20T07:57:58;8.57;;;5.50;;
22967;SDS011;11650;48.106;-1.696;2022-11-20T08:00:24;10.50;;;6.07;;
22967;SDS011;11650;48.106;-1.696;2022-11-20T08:02:51;9.27;;;5.40;;
22967;SDS011;11650;48.106;-1.696;2022-11-20T08:05:18;9.43;;;5.70;;
22967;SDS011;11650;48.106;-1.696;2022-11-20T08:07:43;8.87;;;5.73;;
22967;SDS011;11650;48.106;-1.696;2022-11-20T08:10:11;8.90;;;5.87;;
22967;SDS011;11650;48.106;-1.696;2022-11-20T08:13:11;9.63;;;5.93;;
22967;SDS011;11650;48.106;-1.696;2022-11-20T08:15:49;14.40;;;8.23;;
22967;SDS011;11650;48.106;-1.696;2022-11-20T08:18:15;13.50;;;7.00;;
22967;SDS011;11650;48.106;-1.696;2022-11-20T08:20:42;9.90;;;6.60;;
22967;SDS011;11650;48.106;-1.696;2022-11-20T08:23:08;11.80;;;6.47;;
22967;SDS011;11650;48.106;-1.696;2022-11-20T08:25:34;13.53;;;7.60;;
22967;SDS011;11650;48.106;-1.696;2022-11-20T08:28:01;16.93;;;7.60;;
22967;SDS011;11650;48.106;-1.696;2022-11-20T08:30:28;13.80;;;6.93;;
22967;SDS011;11650;48.106;-1.696;2022-11-20T08:32:54;11.50;;;7.27;;
22967;SDS011;11650;48.106;-1.696;2022-11-20T08:35:26;11.53;;;6.20;;
22967;SDS011;11650;48.106;-1.696;2022-11-20T08:37:51;13.57;;;4.27;;
22967;SDS011;11650;48.106;-1.696;2022-11-20T08:40:17;12.27;;;5.83;;
22967;SDS011;11650;48.106;-1.696;2022-11-20T08:42:49;12.60;;;5.93;;
22967;SDS011;11650;48.106;-1.696;2022-11-20T08:45:16;17.53;;;7.23;;
22967;SDS011;11650;48.106;-1.696;2022-11-20T08:47:42;11.93;;;5.80;;
22967;SDS011;11650;48.106;-1.696;2022-11-20T08:50:09;16.13;;;5.17;;
22967;SDS011;11650;48.106;-1.696;2022-11-20T08:52:36;13.57;;;4.77;;
22967;SDS011;11650;48.106;-1.696;2022-11-20T08:55:01;14.80;;;3.77;;
22967;SDS011;11650;48.106;-1.696;2022-11-20T08:57:28;12.30;;;4.40;;
22967;SDS011;11650;48.106;-1.696;2022-11-20T08:59:59;14.60;;;3.33;;
22967;SDS011;11650;48.106;-1.696;2022-11-20T09:02:24;19.43;;;4.77;;
22967;SDS011;11650;48.106;-1.696;2022-11-20T09:04:50;27.53;;;5.17;;
22967;SDS011;11650;48.106;-1.696;2022-11-20T09:07:16;23.90;;;5.83;;
22967;SDS011;11650;48.106;-1.696;2022-11-20T09:09:42;31.30;;;5.57;;
22967;SDS011;11650;48.106;-1.696;2022-11-20T09:12:07;26.60;;;4.93;;
22967;SDS011;11650;48.106;-1.696;2022-11-20T09:14:33;28.93;;;4.33;;
22967;SDS011;11650;48.106;-1.696;2022-11-20T09:16:59;40.33;;;5.13;;
22967;SDS011;11650;48.106;-1.696;2022-11-20T09:19:24;34.63;;;4.60;;
22967;SDS011;11650;48.106;-1.696;2022-11-20T09:21:50;34.13;;;5.40;;
22967;SDS011;11650;48.106;-1.696;2022-11-20T09:24:16;33.37;;;5.20;;
22967;SDS011;11650;48.106;-1.696;2022-11-20T09:26:42;30.17;;;4.93;;
22967;SDS011;11650;48.106;-1.696;2022-11-20T09:29:08;40.60;;;5.57;;
22967;SDS011;11650;48.106;-1.696;2022-11-20T09:31:34;30.63;;;5.10;;
22967;SDS011;11650;48.106;-1.696;2022-11-20T09:33:59;35.00;;;5.83;;
22967;SDS011;11650;48.106;-1.696;2022-11-20T09:36:25;36.00;;;6.00;;
22967;SDS011;11650;48.106;-1.696;2022-11-20T09:38:51;39.83;;;6.43;;
22967;SDS011;11650;48.106;-1.696;2022-11-20T09:46:55;36.27;;;6.17;;
22967;SDS011;11650;48.106;-1.696;2022-11-20T09:51:56;30.43;;;5.67;;
22967;SDS011;11650;48.106;-1.696;2022-11-20T09:54:33;39.17;;;6.00;;
22967;SDS011;11650;48.106;-1.696;2022-11-20T09:57:07;41.40;;;6.57;;
22967;SDS011;11650;48.106;-1.696;2022-11-20T09:59:43;35.93;;;5.90;;
22967;SDS011;11650;48.106;-1.696;2022-11-20T10:05:11;34.90;;;6.30;;
22967;SDS011;11650;48.106;-1.696;2022-11-20T10:12:56;44.33;;;7.27;;
22967;SDS011;11650;48.106;-1.696;2022-11-20T10:15:43;42.03;;;6.73;;
22967;SDS011;11650;48.106;-1.696;2022-11-20T10:21:15;55.57;;;6.43;;
22967;SDS011;11650;48.106;-1.696;2022-11-20T10:29:36;40.77;;;6.10;;
22967;SDS011;11650;48.106;-1.696;2022-11-20T10:32:07;38.20;;;5.83;;
22967;SDS011;11650;48.106;-1.696;2022-11-20T10:37:27;42.60;;;6.97;;
22967;SDS011;11650;48.106;-1.696;2022-11-20T10:42:47;38.33;;;6.40;;
22967;SDS011;11650;48.106;-1.696;2022-11-20T10:45:33;46.27;;;6.10;;
22967;SDS011;11650;48.106;-1.696;2022-11-20T10:50:32;32.53;;;5.63;;
22967;SDS011;11650;48.106;-1.696;2022-11-20T10:55:47;30.33;;;5.37;;
22967;SDS011;11650;48.106;-1.696;2022-11-20T10:58:23;38.47;;;6.27;;
22967;SDS011;11650;48.106;-1.696;2022-11-20T11:01:15;34.03;;;5.47;;
22967;SDS011;11650;48.106;-1.696;2022-11-20T11:03:43;36.57;;;6.03;;
22967;SDS011;11650;48.106;-1.696;2022-11-20T11:08:58;30.90;;;5.33;;
22967;SDS011;11650;48.106;-1.696;2022-11-20T11:11:29;31.93;;;6.10;;
22967;SDS011;11650;48.106;-1.696;2022-11-20T11:16:34;35.80;;;6.10;;
22967;SDS011;11650;48.106;-1.696;2022-11-20T11:19:10;33.77;;;6.30;;
22967;SDS011;11650;48.106;-1.696;2022-11-20T11:21:37;33.00;;;5.50;;
22967;SDS011;11650;48.106;-1.696;2022-11-20T11:24:14;36.53;;;5.93;;
22967;SDS011;11650;48.106;-1.696;2022-11-20T11:27:10;44.07;;;7.33;;
22967;SDS011;11650;48.106;-1.696;2022-11-20T11:29:37;30.30;;;5.27;;
22967;SDS011;11650;48.106;-1.696;2022-11-20T11:32:07;28.97;;;5.30;;
22967;SDS011;11650;48.106;-1.696;2022-11-20T11:34:36;36.97;;;5.73;;
22967;SDS011;11650;48.106;-1.696;2022-11-20T11:37:02;31.27;;;5.90;;
22967;SDS011;11650;48.106;-1.696;2022-11-20T11:39:29;37.50;;;5.70;;
22967;SDS011;11650;48.106;-1.696;2022-11-20T11:41:56;29.70;;;5.33;;
22967;SDS011;11650;48.106;-1.696;2022-11-20T11:44:33;29.83;;;5.53;;
22967;SDS011;11650;48.106;-1.696;2022-11-20T11:50:01;31.40;;;4.63;;
22967;SDS011;11650;48.106;-1.696;2022-11-20T11:52:33;31.53;;;6.33;;
22967;SDS011;11650;48.106;-1.696;2022-11-20T11:55:09;28.50;;;4.87;;
22967;SDS011;11650;48.106;-1.696;2022-11-20T12:00:47;19.73;;;4.10;;
22967;SDS011;11650;48.106;-1.696;2022-11-20T12:03:29;27.70;;;4.80;;
22967;SDS011;11650;48.106;-1.696;2022-11-20T12:06:15;29.33;;;5.03;;
22967;SDS011;11650;48.106;-1.696;2022-11-20T12:12:13;22.80;;;4.70;;
22967;SDS011;11650;48.106;-1.696;2022-11-20T12:14:26;23.23;;;4.67;;
22967;SDS011;11650;48.106;-1.696;2022-11-20T12:17:00;23.63;;;4.77;;
22967;SDS011;11650;48.106;-1.696;2022-11-20T12:19:26;25.77;;;4.03;;
22967;SDS011;11650;48.106;-1.696;2022-11-20T12:22:02;23.37;;;4.03;;
22967;SDS011;11650;48.106;-1.696;2022-11-20T12:29:58;30.87;;;4.90;;
22967;SDS011;11650;48.106;-1.696;2022-11-20T12:32:44;27.33;;;4.60;;
22967;SDS011;11650;48.106;-1.696;2022-11-20T12:43:44;29.60;;;4.57;;
22967;SDS011;11650;48.106;-1.696;2022-11-20T12:46:56;30.87;;;4.70;;
22967;SDS011;11650;48.106;-1.696;2022-11-20T12:57:58;32.63;;;4.70;;
22967;SDS011;11650;48.106;-1.696;2022-11-20T13:03:38;26.53;;;4.57;;
22967;SDS011;11650;48.106;-1.696;2022-11-20T13:06:16;30.27;;;5.47;;
22967;SDS011;11650;48.106;-1.696;2022-11-20T13:08:53;25.57;;;5.40;;
22967;SDS011;11650;48.106;-1.696;2022-11-20T13:11:28;31.57;;;5.20;;
22967;SDS011;11650;48.106;-1.696;2022-11-20T13:15:14;32.17;;;5.20;;
22967;SDS011;11650;48.106;-1.696;2022-11-20T13:17:19;29.13;;;4.23;;
22967;SDS011;11650;48.106;-1.696;2022-11-20T13:19:54;21.47;;;4.43;;
22967;SDS011;11650;48.106;-1.696;2022-11-20T13:22:29;23.73;;;4.40;;
22967;SDS011;11650;48.106;-1.696;2022-11-20T13:25:10;18.27;;;3.40;;
22967;SDS011;11650;48.106;-1.696;2022-11-20T13:27:48;20.27;;;4.10;;
22967;SDS011;11650;48.106;-1.696;2022-11-20T13:30:17;22.73;;;4.43;;
22967;SDS011;11650;48.106;-1.696;2022-11-20T13:35:27;19.33;;;3.90;;
22967;SDS011;11650;48.106;-1.696;2022-11-20T13:38:04;19.30;;;3.57;;
22967;SDS011;11650;48.106;-1.696;2022-11-20T13:40:35;18.53;;;3.87;;
22967;SDS011;11650;48.106;-1.696;2022-11-20T13:45:55;22.73;;;4.00;;
22967;SDS011;11650;48.106;-1.696;2022-11-20T13:48:30;19.43;;;4.03;;
22967;SDS011;11650;48.106;-1.696;2022-11-20T13:51:14;13.90;;;2.40;;
22967;SDS011;11650;48.106;-1.696;2022-11-20T14:01:57;18.23;;;4.07;;
22967;SDS011;11650;48.106;-1.696;2022-11-20T14:04:27;24.07;;;4.40;;
22967;SDS011;11650;48.106;-1.696;2022-11-20T14:06:56;8.93;;;2.80;;
22967;SDS011;11650;48.106;-1.696;2022-11-20T14:09:30;19.80;;;3.73;;
22967;SDS011;11650;48.106;-1.696;2022-11-20T14:11:57;21.80;;;3.87;;
22967;SDS011;11650;48.106;-1.696;2022-11-20T14:14:24;23.50;;;4.50;;
22967;SDS011;11650;48.106;-1.696;2022-11-20T14:16:52;20.83;;;4.33;;
22967;SDS011;11650;48.106;-1.696;2022-11-20T14:19:30;17.30;;;4.00;;
22967;SDS011;11650;48.106;-1.696;2022-11-20T14:24:46;20.77;;;4.10;;
22967;SDS011;11650;48.106;-1.696;2022-11-20T14:27:26;28.17;;;4.70;;
22967;SDS011;11650;48.106;-1.696;2022-11-20T14:29:52;22.40;;;3.87;;
22967;SDS011;11650;48.106;-1.696;2022-11-20T14:32:19;25.53;;;4.70;;
22967;SDS011;11650;48.106;-1.696;2022-11-20T14:34:48;23.33;;;4.57;;
22967;SDS011;11650;48.106;-1.696;2022-11-20T14:37:23;21.17;;;4.37;;
22967;SDS011;11650;48.106;-1.696;2022-11-20T14:39:52;21.90;;;4.70;;
22967;SDS011;11650;48.106;-1.696;2022-11-20T14:42:24;23.90;;;4.83;;
22967;SDS011;11650;48.106;-1.696;2022-11-20T14:44:52;23.07;;;4.57;;
22967;SDS011;11650;48.106;-1.696;2022-11-20T14:47:22;19.17;;;4.10;;
22967;SDS011;11650;48.106;-1.696;2022-11-20T14:49:51;21.93;;;4.20;;
22967;SDS011;11650;48.106;-1.696;2022-11-20T14:54:51;26.17;;;4.90;;
22967;SDS011;11650;48.106;-1.696;2022-11-20T14:57:23;29.03;;;5.43;;
22967;SDS011;11650;48.106;-1.696;2022-11-20T14:59:50;26.20;;;4.43;;
22967;SDS011;11650;48.106;-1.696;2022-11-20T15:02:17;25.80;;;4.57;;
22967;SDS011;11650;48.106;-1.696;2022-11-20T15:04:49;21.37;;;3.80;;
22967;SDS011;11650;48.106;-1.696;2022-11-20T15:07:28;25.80;;;4.67;;
22967;SDS011;11650;48.106;-1.696;2022-11-20T15:09:59;21.87;;;4.47;;
22967;SDS011;11650;48.106;-1.696;2022-11-20T15:12:32;25.27;;;4.00;;
22967;SDS011;11650;48.106;-1.696;2022-11-20T15:15:02;23.17;;;4.00;;
22967;SDS011;11650;48.106;-1.696;2022-11-20T15:17:30;21.77;;;3.80;;
22967;SDS011;11650;48.106;-1.696;2022-11-20T15:19:56;20.50;;;4.50;;
22967;SDS011;11650;48.106;-1.696;2022-11-20T15:22:22;25.93;;;4.50;;
22967;SDS011;11650;48.106;-1.696;2022-11-20T15:24:48;21.07;;;4.47;;
22967;SDS011;11650;48.106;-1.696;2022-11-20T15:27:13;23.47;;;4.10;;
22967;SDS011;11650;48.106;-1.696;2022-11-20T15:29:39;23.53;;;4.27;;
22967;SDS011;11650;48.106;-1.696;2022-11-20T15:32:07;24.67;;;4.30;;
22967;SDS011;11650;48.106;-1.696;2022-11-20T15:34:33;23.63;;;4.77;;
22967;SDS011;11650;48.106;-1.696;2022-11-20T15:36:59;24.83;;;4.87;;
22967;SDS011;11650;48.106;-1.696;2022-11-20T15:39:24;21.73;;;4.00;;
22967;SDS011;11650;48.106;-1.696;2022-11-20T15:41:50;23.27;;;4.80;;
22967;SDS011;11650;48.106;-1.696;2022-11-20T15:44:15;25.47;;;4.90;;
22967;SDS011;11650;48.106;-1.696;2022-11-20T15:46:41;29.23;;;4.70;;
22967;SDS011;11650;48.106;-1.696;2022-11-20T15:49:13;33.30;;;5.40;;
22967;SDS011;11650;48.106;-1.696;2022-11-20T15:51:41;29.97;;;5.20;;
22967;SDS011;11650;48.106;-1.696;2022-11-20T15:54:19;26.53;;;5.57;;
22967;SDS011;11650;48.106;-1.696;2022-11-20T15:56:46;34.90;;;6.37;;
22967;SDS011;11650;48.106;-1.696;2022-11-20T15:59:13;23.90;;;5.93;;
22967;SDS011;11650;48.106;-1.696;2022-11-20T16:01:42;78.83;;;37.30;;
22967;SDS011;11650;48.106;-1.696;2022-11-20T16:04:11;27.17;;;7.10;;
22967;SDS011;11650;48.106;-1.696;2022-11-20T16:06:38;44.53;;;14.30;;
22967;SDS011;11650;48.106;-1.696;2022-11-20T16:09:04;27.90;;;5.70;;
22967;SDS011;11650;48.106;-1.696;2022-11-20T16:11:29;26.57;;;5.73;;
22967;SDS011;11650;48.106;-1.696;2022-11-20T16:13:55;30.93;;;5.87;;
22967;SDS011;11650;48.106;-1.696;2022-11-20T16:16:39;27.60;;;6.00;;
22967;SDS011;11650;48.106;-1.696;2022-11-20T16:19:09;22.87;;;5.37;;
22967;SDS011;11650;48.106;-1.696;2022-11-20T16:21:35;30.80;;;6.07;;
22967;SDS011;11650;48.106;-1.696;2022-11-20T16:24:06;21.53;;;5.00;;
22967;SDS011;11650;48.106;-1.696;2022-11-20T16:26:33;26.73;;;5.30;;